createdAt,value
2018-05-25T00:01:35.782Z,5.65
2018-05-25T00:04:03.546Z,5.95
2018-05-25T00:06:32.465Z,5.85
2018-05-25T00:09:00.321Z,5.32
2018-05-25T00:11:27.962Z,5.72
2018-05-25T00:13:55.845Z,5.60
2018-05-25T00:16:23.701Z,5.53
2018-05-25T00:18:51.780Z,5.70
2018-05-25T00:21:19.638Z,5.60
2018-05-25T00:23:47.831Z,5.15
2018-05-25T00:26:15.679Z,6.35
2018-05-25T00:28:43.963Z,5.78
2018-05-25T00:31:12.026Z,5.80
2018-05-25T00:33:39.900Z,6.25
2018-05-25T00:36:07.549Z,6.28
2018-05-25T00:38:35.752Z,6.47
2018-05-25T00:41:04.818Z,6.25
2018-05-25T00:43:33.700Z,6.22
2018-05-25T00:46:01.871Z,5.90
2018-05-25T00:48:29.635Z,6.30
2018-05-25T00:50:57.923Z,6.15
2018-05-25T00:53:25.791Z,6.00
2018-05-25T00:55:53.975Z,6.25
2018-05-25T00:58:21.753Z,6.25
2018-05-25T01:00:49.898Z,5.85
2018-05-25T01:03:17.761Z,6.00
2018-05-25T01:05:45.634Z,6.43
2018-05-25T01:08:14.005Z,6.57
2018-05-25T01:10:41.769Z,6.65
2018-05-25T01:13:10.778Z,6.15
2018-05-25T01:15:39.857Z,6.90
2018-05-25T01:18:08.645Z,6.90
2018-05-25T01:20:36.417Z,6.97
2018-05-25T01:23:04.375Z,6.45
2018-05-25T01:25:32.151Z,7.00
2018-05-25T01:28:00.006Z,6.97
2018-05-25T01:30:28.833Z,6.47
2018-05-25T01:32:57.894Z,7.53
2018-05-25T01:35:25.551Z,7.53
2018-05-25T01:37:53.721Z,7.22
2018-05-25T01:40:21.783Z,6.72
2018-05-25T01:42:49.955Z,7.10
2018-05-25T01:45:17.737Z,6.93
2018-05-25T01:47:45.920Z,7.45
2018-05-25T01:50:13.769Z,7.05
2018-05-25T01:52:41.437Z,7.10
2018-05-25T01:55:09.901Z,6.62
2018-05-25T01:57:37.592Z,7.40
2018-05-25T02:00:05.765Z,7.28
2018-05-25T02:02:33.930Z,6.22
2018-05-25T02:05:01.788Z,6.70
2018-05-25T02:07:29.650Z,6.93
2018-05-25T02:09:57.825Z,6.90
2018-05-25T02:12:25.585Z,6.57
2018-05-25T02:14:53.769Z,7.03
2018-05-25T02:17:21.651Z,7.18
2018-05-25T02:19:49.809Z,6.80
2018-05-25T02:22:17.446Z,6.95
2018-05-25T02:24:47.371Z,6.72
2018-05-25T02:27:15.853Z,6.93
2018-05-25T02:29:43.509Z,6.95
2018-05-25T02:32:11.785Z,7.07
2018-05-25T02:34:39.553Z,7.30
2018-05-25T02:37:07.609Z,7.25
2018-05-25T02:39:36.621Z,7.25
2018-05-25T02:42:04.370Z,6.87
2018-05-25T02:44:32.154Z,6.72
2018-05-25T02:46:59.912Z,7.53
2018-05-25T02:49:27.782Z,6.97
2018-05-25T02:51:55.734Z,7.00
2018-05-25T02:54:23.918Z,7.32
2018-05-25T02:56:51.776Z,7.00
2018-05-25T02:59:19.646Z,7.25
2018-05-25T03:01:47.709Z,6.40
2018-05-25T03:04:15.777Z,7.28
2018-05-25T03:06:43.850Z,7.53
2018-05-25T03:09:12.986Z,6.68
2018-05-25T03:11:41.936Z,7.53
2018-05-25T03:14:09.807Z,6.45
2018-05-25T03:16:37.592Z,6.82
2018-05-25T03:19:05.746Z,7.22
2018-05-25T03:21:33.912Z,6.82
2018-05-25T03:24:01.573Z,7.10
2018-05-25T03:26:29.632Z,7.78
2018-05-25T03:28:57.711Z,8.70
2018-05-25T03:31:25.991Z,7.90
2018-05-25T03:33:54.178Z,8.05
2018-05-25T03:36:22.136Z,7.78
2018-05-25T03:38:49.995Z,7.50
2018-05-25T03:41:17.767Z,7.70
2018-05-25T03:43:45.939Z,7.25
2018-05-25T03:46:13.592Z,7.72
2018-05-25T03:48:42.384Z,7.90
2018-05-25T03:51:10.154Z,8.38
2018-05-25T03:53:37.914Z,8.50
2018-05-25T03:56:05.680Z,9.27
2018-05-25T03:58:45.821Z,9.00
2018-05-25T04:01:25.469Z,8.73
2018-05-25T04:03:54.569Z,10.15
2018-05-25T04:06:22.329Z,8.65
2018-05-25T04:08:50.192Z,9.15
2018-05-25T04:11:18.071Z,8.73
2018-05-25T04:13:46.637Z,8.60
2018-05-25T04:16:14.404Z,8.95
2018-05-25T04:18:42.180Z,8.35
2018-05-25T04:21:10.034Z,8.15
2018-05-25T04:23:37.900Z,8.63
2018-05-25T04:26:05.961Z,8.05
2018-05-25T04:28:33.742Z,7.87
2018-05-25T04:31:01.910Z,8.25
2018-05-25T04:33:29.669Z,9.27
2018-05-25T04:35:58.355Z,8.38
2018-05-25T04:38:26.193Z,8.30
2018-05-25T04:40:54.589Z,7.40
2018-05-25T04:43:22.258Z,8.55
2018-05-25T04:45:50.436Z,7.87
2018-05-25T04:48:18.312Z,7.90
2018-05-25T04:50:46.881Z,8.00
2018-05-25T04:53:14.531Z,7.65
2018-05-25T04:55:42.304Z,7.70
2018-05-25T04:58:10.066Z,7.97
2018-05-25T05:00:37.752Z,7.43
2018-05-25T05:03:05.911Z,8.20
2018-05-25T05:05:33.766Z,7.65
2018-05-25T05:08:01.949Z,7.95
2018-05-25T05:10:29.810Z,7.37
2018-05-25T05:12:57.569Z,6.68
2018-05-25T05:15:25.753Z,7.15
2018-05-25T05:17:53.911Z,7.57
2018-05-25T05:20:21.682Z,7.20
2018-05-25T05:22:49.746Z,7.35
2018-05-25T05:25:18.007Z,7.18
2018-05-25T05:27:45.675Z,6.97
2018-05-25T05:30:13.869Z,7.47
2018-05-25T05:32:41.624Z,6.95
2018-05-25T05:35:09.804Z,7.20
2018-05-25T05:37:37.651Z,7.03
2018-05-25T05:40:06.550Z,6.30
2018-05-25T05:42:34.317Z,6.85
2018-05-25T05:45:02.077Z,7.82
2018-05-25T05:47:29.833Z,7.07
2018-05-25T05:49:57.705Z,6.60
2018-05-25T05:52:25.881Z,6.57
2018-05-25T05:54:53.532Z,5.90
2018-05-25T05:57:21.610Z,6.95
2018-05-25T05:59:49.794Z,6.53
2018-05-25T06:02:17.846Z,6.93
2018-05-25T06:04:46.754Z,6.20
2018-05-25T06:07:14.607Z,5.90
2018-05-25T06:09:42.394Z,6.28
2018-05-25T06:12:10.551Z,6.05
2018-05-25T06:14:38.410Z,6.82
2018-05-25T06:17:06.060Z,6.07
2018-05-25T06:19:33.829Z,6.40
2018-05-25T06:22:02.942Z,6.70
2018-05-25T06:24:30.895Z,6.55
2018-05-25T06:26:58.761Z,7.00
2018-05-25T06:29:26.435Z,7.18
2018-05-25T06:31:55.717Z,6.37
2018-05-25T06:34:23.921Z,6.93
2018-05-25T06:36:52.976Z,6.47
2018-05-25T06:39:20.756Z,6.10
2018-05-25T06:41:48.626Z,6.60
2018-05-25T06:44:16.488Z,5.62
2018-05-25T06:46:44.147Z,6.05
2018-05-25T06:49:11.901Z,5.57
2018-05-25T06:51:39.671Z,5.47
2018-05-25T06:54:07.863Z,5.50
2018-05-25T06:56:35.905Z,6.05
2018-05-25T06:59:03.683Z,5.25
2018-05-25T07:01:31.878Z,5.97
2018-05-25T07:03:59.630Z,5.15
2018-05-25T07:06:27.789Z,5.25
2018-05-25T07:08:55.848Z,6.55
2018-05-25T07:11:23.672Z,5.37
2018-05-25T07:13:51.918Z,6.00
2018-05-25T07:16:20.970Z,5.60
2018-05-25T07:18:48.647Z,5.80
2018-05-25T07:21:16.305Z,5.90
2018-05-25T07:23:44.394Z,6.70
2018-05-25T07:26:12.146Z,5.65
2018-05-25T07:28:40.019Z,5.60
2018-05-25T07:31:07.883Z,5.20
2018-05-25T07:33:35.753Z,5.37
2018-05-25T07:36:03.836Z,5.43
2018-05-25T07:38:31.595Z,5.85
2018-05-25T07:41:00.576Z,5.35
2018-05-25T07:43:29.146Z,5.60
2018-05-25T07:45:56.813Z,5.85
2018-05-25T07:48:24.695Z,5.28
2018-05-25T07:50:52.449Z,4.60
2018-05-25T07:53:20.097Z,4.97
2018-05-25T07:55:47.868Z,5.28
2018-05-25T07:58:15.638Z,5.50
2018-05-25T08:00:43.695Z,4.82
2018-05-25T08:03:12.599Z,4.32
2018-05-25T08:05:40.460Z,4.40
2018-05-25T08:08:08.655Z,4.90
2018-05-25T08:10:36.501Z,4.60
2018-05-25T08:13:04.366Z,4.70
2018-05-25T08:15:32.120Z,4.35
2018-05-25T08:18:00.609Z,4.43
2018-05-25T08:20:28.473Z,4.32
2018-05-25T08:22:56.246Z,5.80
2018-05-25T08:25:24.019Z,4.57
2018-05-25T08:27:51.759Z,4.68
2018-05-25T08:30:20.079Z,4.85
2018-05-25T08:32:47.809Z,4.10
2018-05-25T08:35:16.074Z,4.50
2018-05-25T08:37:43.772Z,4.60
2018-05-25T08:40:12.120Z,4.45
2018-05-25T08:42:39.862Z,4.62
2018-05-25T08:45:08.769Z,4.32
2018-05-25T08:47:36.637Z,4.43
2018-05-25T08:50:04.505Z,4.87
2018-05-25T08:52:32.372Z,4.25
2018-05-25T08:55:00.237Z,4.10
2018-05-25T08:57:27.998Z,4.12
2018-05-25T08:59:55.763Z,4.00
2018-05-25T09:02:24.040Z,4.07
2018-05-25T09:04:51.920Z,3.90
2018-05-25T09:07:19.550Z,4.25
2018-05-25T09:09:47.844Z,3.33
2018-05-25T09:12:15.609Z,3.62
2018-05-25T09:14:43.877Z,4.00
2018-05-25T09:17:11.526Z,3.67
2018-05-25T09:19:40.312Z,3.47
2018-05-25T09:22:08.102Z,3.30
2018-05-25T09:24:35.855Z,3.72
2018-05-25T09:27:03.717Z,3.70
2018-05-25T09:29:31.897Z,3.85
2018-05-25T09:31:59.740Z,3.62
2018-05-25T09:34:28.643Z,3.50
2018-05-25T09:36:56.418Z,3.10
2018-05-25T09:39:24.300Z,3.85
2018-05-25T09:41:52.031Z,3.33
2018-05-25T09:44:20.259Z,3.87
2018-05-25T09:46:48.794Z,4.10
2018-05-25T09:49:17.381Z,3.65
2018-05-25T09:51:45.987Z,3.67
2018-05-25T09:54:13.825Z,3.83
2018-05-25T09:59:44.168Z,4.12
2018-05-25T10:02:11.835Z,3.22
2018-05-25T10:04:40.003Z,3.42
2018-05-25T10:07:07.797Z,3.97
2018-05-25T10:09:35.825Z,3.80
2018-05-25T10:12:04.009Z,3.85
2018-05-25T10:14:31.770Z,3.53
2018-05-25T10:16:59.951Z,3.50
2018-05-25T10:19:27.916Z,3.65
2018-05-25T10:21:55.674Z,3.75
2018-05-25T10:24:23.872Z,4.00
2018-05-25T10:26:51.717Z,3.45
2018-05-25T10:29:19.888Z,3.95
2018-05-25T10:31:47.656Z,3.70
2018-05-25T10:34:15.824Z,3.80
2018-05-25T10:36:43.892Z,3.87
2018-05-25T10:39:11.657Z,3.35
2018-05-25T10:41:39.528Z,4.43
2018-05-25T10:44:08.116Z,3.53
2018-05-25T10:46:36.115Z,4.00
2018-05-25T10:49:05.471Z,3.83
2018-05-25T10:51:34.072Z,3.58
2018-05-25T10:54:01.973Z,3.53
2018-05-25T10:56:30.522Z,3.78
2018-05-25T10:58:58.377Z,3.50
2018-05-25T11:01:26.185Z,3.30
2018-05-25T11:03:55.238Z,3.25
2018-05-25T11:06:23.835Z,3.60
2018-05-25T11:08:52.196Z,3.33
2018-05-25T11:11:20.071Z,3.17
2018-05-25T11:13:47.825Z,3.05
2018-05-25T11:16:16.009Z,3.60
2018-05-25T11:18:43.865Z,3.05
2018-05-25T11:21:11.512Z,3.75
2018-05-25T11:23:39.990Z,4.28
2018-05-25T11:26:07.778Z,4.28
2018-05-25T11:28:35.831Z,4.20
2018-05-25T11:31:04.427Z,4.20
2018-05-25T11:33:32.293Z,3.70
2018-05-25T11:36:00.048Z,4.43
2018-05-25T11:38:27.923Z,4.07
2018-05-25T11:40:55.689Z,3.95
2018-05-25T11:43:23.850Z,3.62
2018-05-25T11:45:51.918Z,3.85
2018-05-25T11:48:19.675Z,4.28
2018-05-25T11:50:47.752Z,3.87
2018-05-25T11:53:15.934Z,3.92
2018-05-25T11:55:43.814Z,3.83
2018-05-25T11:58:11.973Z,4.12
2018-05-25T12:00:39.732Z,4.30
2018-05-25T12:03:07.924Z,3.97
2018-05-25T12:05:36.074Z,4.10
2018-05-25T12:08:03.843Z,4.30
2018-05-25T12:10:32.115Z,3.85
2018-05-25T12:12:59.904Z,3.90
2018-05-25T12:15:27.637Z,3.80
2018-05-25T12:17:55.925Z,3.62
2018-05-25T12:20:23.707Z,3.40
2018-05-25T12:22:51.866Z,2.92
2018-05-25T12:25:20.029Z,2.78
2018-05-25T12:27:47.814Z,2.85
2018-05-25T12:30:15.969Z,2.80
2018-05-25T12:32:43.826Z,2.72
2018-05-25T12:35:12.019Z,2.70
2018-05-25T12:37:39.870Z,2.53
2018-05-25T12:40:08.044Z,2.55
2018-05-25T12:42:35.819Z,3.15
2018-05-25T12:45:11.972Z,2.47
2018-05-25T12:47:40.233Z,2.50
2018-05-25T12:50:08.413Z,2.75
2018-05-25T12:52:36.065Z,2.90
2018-05-25T12:55:03.837Z,2.75
2018-05-25T12:57:32.120Z,2.87
2018-05-25T12:59:59.873Z,3.45
2018-05-25T13:02:27.849Z,3.33
2018-05-25T13:04:56.038Z,3.60
2018-05-25T13:07:23.894Z,3.40
2018-05-25T13:09:51.752Z,3.53
2018-05-25T13:12:19.944Z,3.17
2018-05-25T13:14:47.795Z,10.57
2018-05-25T13:17:15.860Z,3.72
2018-05-25T13:19:44.036Z,3.17
2018-05-25T13:22:11.678Z,3.30
2018-05-25T13:24:39.873Z,3.33
2018-05-25T13:27:07.928Z,3.45
2018-05-25T13:29:35.710Z,3.40
2018-05-25T13:32:03.973Z,3.30
2018-05-25T13:34:31.782Z,3.15
2018-05-25T13:37:00.010Z,3.25
2018-05-25T13:39:27.784Z,3.40
2018-05-25T13:41:55.961Z,3.53
2018-05-25T13:44:23.740Z,2.95
2018-05-25T13:46:51.991Z,2.95
2018-05-25T13:49:19.711Z,2.90
2018-05-25T13:51:47.940Z,2.67
2018-05-25T13:54:15.796Z,2.92
2018-05-25T13:56:43.970Z,3.35
2018-05-25T13:59:11.821Z,3.40
2018-05-25T14:01:39.888Z,3.05
2018-05-25T14:04:07.667Z,3.55
2018-05-25T14:06:35.932Z,2.95
2018-05-25T14:09:03.905Z,2.90
2018-05-25T14:11:31.676Z,2.78
2018-05-25T14:13:59.870Z,2.75
2018-05-25T14:16:27.912Z,2.75
2018-05-25T14:18:55.788Z,2.97
2018-05-25T14:21:23.842Z,2.80
2018-05-25T14:23:52.315Z,3.08
2018-05-25T14:26:20.110Z,2.92
2018-05-25T14:28:47.862Z,2.97
2018-05-25T14:31:16.032Z,3.00
2018-05-25T14:33:43.826Z,3.37
2018-05-25T14:36:11.857Z,3.42
2018-05-25T14:38:40.055Z,3.10
2018-05-25T14:41:07.686Z,3.10
2018-05-25T14:43:35.870Z,3.00
2018-05-25T14:46:04.053Z,3.47
2018-05-25T14:48:31.921Z,2.90
2018-05-25T14:50:59.575Z,3.00
2018-05-25T14:53:28.163Z,3.05
2018-05-25T14:55:55.927Z,3.15
2018-05-25T14:58:23.697Z,3.10
2018-05-25T15:00:51.875Z,2.75
2018-05-25T15:03:20.232Z,2.87
2018-05-25T15:05:48.644Z,3.25
2018-05-25T15:08:16.370Z,3.28
2018-05-25T15:10:44.152Z,3.10
2018-05-25T15:13:12.041Z,3.10
2018-05-25T15:15:41.410Z,3.37
2018-05-25T15:18:09.989Z,3.22
2018-05-25T15:20:37.654Z,3.15
2018-05-25T15:23:05.940Z,2.90
2018-05-25T15:25:33.583Z,2.92
2018-05-25T15:28:02.301Z,2.72
2018-05-25T15:30:30.140Z,2.97
2018-05-25T15:32:57.762Z,2.75
2018-05-25T15:35:25.977Z,3.55
2018-05-25T15:37:53.626Z,3.20
2018-05-25T15:40:22.223Z,3.22
2018-05-25T15:42:49.977Z,2.95
2018-05-25T15:45:17.658Z,2.72
2018-05-25T15:47:45.706Z,2.65
2018-05-25T15:50:13.880Z,6.95
2018-05-25T15:52:41.957Z,2.80
2018-05-25T15:55:09.828Z,2.53
2018-05-25T15:57:38.090Z,2.80
2018-05-25T16:00:05.882Z,2.53
2018-05-25T16:02:34.142Z,2.72
2018-05-25T16:05:03.357Z,2.60
2018-05-25T16:07:32.017Z,2.50
2018-05-25T16:09:59.677Z,3.05
2018-05-25T16:12:27.937Z,3.08
2018-05-25T16:14:57.036Z,3.12
2018-05-25T16:17:28.222Z,3.78
2018-05-25T16:19:56.474Z,3.42
2018-05-25T16:22:25.197Z,3.08
2018-05-25T16:24:54.156Z,3.03
2018-05-25T16:27:22.623Z,2.92
2018-05-25T16:29:52.350Z,3.33
2018-05-25T16:32:21.492Z,3.20
2018-05-25T16:34:50.329Z,3.08
2018-05-25T16:37:19.446Z,2.90
2018-05-25T16:39:47.886Z,3.20
2018-05-25T16:42:16.065Z,2.67
2018-05-25T16:44:43.836Z,3.00
2018-05-25T16:47:12.001Z,3.42
2018-05-25T16:49:40.186Z,2.95
2018-05-25T16:52:09.363Z,3.10
2018-05-25T16:54:37.856Z,3.60
2018-05-25T16:57:05.911Z,3.55
2018-05-25T16:59:34.200Z,3.55
2018-05-25T17:02:01.961Z,3.60
2018-05-25T17:04:29.727Z,2.90
2018-05-25T17:06:57.907Z,3.60
2018-05-25T17:09:26.791Z,3.30
2018-05-25T17:11:54.549Z,3.80
2018-05-25T17:14:22.421Z,3.67
2018-05-25T17:16:50.287Z,3.30
2018-05-25T17:19:18.149Z,3.90
2018-05-25T17:21:45.916Z,4.25
2018-05-25T17:24:14.803Z,3.30
2018-05-25T17:26:42.469Z,3.47
2018-05-25T17:29:10.267Z,3.47
2018-05-25T17:31:38.700Z,3.05
2018-05-25T17:34:06.366Z,3.67
2018-05-25T17:36:34.130Z,3.42
2018-05-25T17:39:02.101Z,3.50
2018-05-25T17:41:29.961Z,3.40
2018-05-25T17:43:57.753Z,3.25
2018-05-25T17:46:26.023Z,3.22
2018-05-25T17:48:55.053Z,3.25
2018-05-25T17:51:22.860Z,3.42
2018-05-25T17:53:51.532Z,3.12
2018-05-25T17:56:20.132Z,3.20
2018-05-25T17:58:47.881Z,3.20
2018-05-25T18:01:16.806Z,3.45
2018-05-25T18:03:45.973Z,3.75
2018-05-25T18:06:13.779Z,3.55
2018-05-25T18:08:42.022Z,3.70
2018-05-25T18:11:09.873Z,3.22
2018-05-25T18:13:38.164Z,3.70
2018-05-25T18:16:05.921Z,3.70
2018-05-25T18:18:34.211Z,4.70
2018-05-25T18:21:02.486Z,4.15
2018-05-25T18:23:30.251Z,3.67
2018-05-25T18:25:59.466Z,4.10
2018-05-25T18:28:28.020Z,3.70
2018-05-25T18:30:55.795Z,5.15
2018-05-25T18:33:24.046Z,4.62
2018-05-25T18:35:51.717Z,5.30
2018-05-25T18:38:19.907Z,4.32
2018-05-25T18:40:48.278Z,3.97
2018-05-25T18:43:16.142Z,4.25
2018-05-25T18:45:44.015Z,3.90
2018-05-25T18:48:12.297Z,3.83
2018-05-25T18:50:40.062Z,4.22
2018-05-25T18:53:09.258Z,5.40
2018-05-25T18:55:38.831Z,4.40
2018-05-25T18:58:06.646Z,4.30
2018-05-25T19:00:35.907Z,4.68
2018-05-25T19:03:04.098Z,4.22
2018-05-25T19:05:31.735Z,4.32
2018-05-25T19:08:00.022Z,4.47
2018-05-25T19:10:27.871Z,4.90
2018-05-25T19:12:56.402Z,4.30
2018-05-25T19:15:24.944Z,5.07
2018-05-25T19:17:52.828Z,4.60
2018-05-25T19:20:20.574Z,4.65
2018-05-25T19:22:48.439Z,4.78
2018-05-25T19:25:16.205Z,4.72
2018-05-25T19:27:44.074Z,4.50
2018-05-25T19:30:11.829Z,4.47
2018-05-25T19:32:40.002Z,4.30
2018-05-25T19:35:07.872Z,4.12
2018-05-25T19:37:36.143Z,4.75
2018-05-25T19:40:03.927Z,5.00
2018-05-25T19:42:32.090Z,4.62
2018-05-25T19:44:59.731Z,4.60
2018-05-25T19:47:28.017Z,4.65
2018-05-25T19:49:55.881Z,4.45
2018-05-25T19:52:24.076Z,4.75
2018-05-25T19:54:53.265Z,4.82
2018-05-25T19:57:22.949Z,4.97
2018-05-25T19:59:50.954Z,4.85
2018-05-25T20:02:20.021Z,4.82
2018-05-25T20:04:47.787Z,5.12
2018-05-25T20:07:15.977Z,5.05
2018-05-25T20:09:44.176Z,6.07
2018-05-25T20:12:12.624Z,5.62
2018-05-25T20:14:40.378Z,5.30
2018-05-25T20:17:08.030Z,5.37
2018-05-25T20:19:35.693Z,5.32
2018-05-25T20:22:03.860Z,6.00
2018-05-25T20:24:32.046Z,5.40
2018-05-25T20:26:59.812Z,5.07
2018-05-25T20:29:27.869Z,5.45
2018-05-25T20:31:55.942Z,5.30
2018-05-25T20:34:24.139Z,5.37
2018-05-25T20:36:51.885Z,5.53
2018-05-25T20:39:19.947Z,5.78
2018-05-25T20:41:48.131Z,5.18
2018-05-25T20:44:15.997Z,5.12
2018-05-25T20:46:43.666Z,5.37
2018-05-25T20:49:12.787Z,5.35
2018-05-25T20:51:42.050Z,4.70
2018-05-25T20:54:09.917Z,5.60
2018-05-25T20:56:38.092Z,5.03
2018-05-25T20:59:07.093Z,5.10
2018-05-25T21:01:36.001Z,5.00
2018-05-25T21:04:06.348Z,5.53
2018-05-25T21:06:35.840Z,5.60
2018-05-25T21:09:07.367Z,5.85
2018-05-25T21:11:37.458Z,6.03
2018-05-25T21:14:07.106Z,5.80
2018-05-25T21:16:35.962Z,5.70
2018-05-25T21:19:04.049Z,5.97
2018-05-25T21:21:31.899Z,5.70
2018-05-25T21:23:59.978Z,5.70
2018-05-25T21:26:28.160Z,5.80
2018-05-25T21:28:55.910Z,5.78
2018-05-25T21:31:23.982Z,5.65
2018-05-25T21:33:52.047Z,6.50
2018-05-25T21:36:19.779Z,5.72
2018-05-25T21:38:47.980Z,6.18
2018-05-25T21:41:15.650Z,5.60
2018-05-25T21:43:44.421Z,5.93
2018-05-25T21:46:12.195Z,7.28
2018-05-25T21:48:39.946Z,6.30
2018-05-25T21:51:08.130Z,6.55
2018-05-25T21:53:35.801Z,6.30
2018-05-25T21:56:04.066Z,5.85
2018-05-25T21:58:31.832Z,6.53
2018-05-25T22:01:00.006Z,6.47
2018-05-25T22:03:27.759Z,6.12
2018-05-25T22:05:56.548Z,6.05
2018-05-25T22:08:24.320Z,7.05
2018-05-25T22:10:51.980Z,6.30
2018-05-25T22:13:20.037Z,7.18
2018-05-25T22:15:48.231Z,6.62
2018-05-25T22:18:16.097Z,7.75
2018-05-25T22:20:50.310Z,6.97
2018-05-25T22:26:13.851Z,7.65
2018-05-25T22:28:42.065Z,6.65
2018-05-25T22:31:10.240Z,6.53
2018-05-25T22:33:37.901Z,6.35
2018-05-25T22:39:07.648Z,7.18
2018-05-25T22:41:35.913Z,6.37
2018-05-25T22:44:15.951Z,7.15
2018-05-25T22:46:56.206Z,6.93
2018-05-25T22:49:35.952Z,7.30
2018-05-25T22:52:15.805Z,6.90
2018-05-25T22:54:43.972Z,6.95
2018-05-25T22:57:12.038Z,7.70
2018-05-25T22:59:39.713Z,6.87
2018-05-25T23:02:07.698Z,7.20
2018-05-25T23:04:35.859Z,7.22
2018-05-25T23:07:04.115Z,7.40
2018-05-25T23:09:31.895Z,6.57
2018-05-25T23:12:00.057Z,7.85
2018-05-25T23:14:27.705Z,7.30
2018-05-25T23:16:55.884Z,9.52
2018-05-25T23:19:23.968Z,7.43
2018-05-25T23:21:53.051Z,7.78
2018-05-25T23:24:20.816Z,7.93
2018-05-25T23:26:49.626Z,8.07
2018-05-25T23:29:19.000Z,8.30
2018-05-25T23:31:46.874Z,9.05
2018-05-25T23:34:14.636Z,9.23
2018-05-25T23:36:42.801Z,8.45
2018-05-25T23:39:10.567Z,10.25
2018-05-25T23:41:38.338Z,8.43
2018-05-25T23:44:06.097Z,8.65
2018-05-25T23:46:33.861Z,9.35
2018-05-25T23:49:02.134Z,9.68
2018-05-25T23:51:31.104Z,8.45
2018-05-25T23:53:58.788Z,8.60
2018-05-25T23:56:26.664Z,8.60
2018-05-25T23:58:54.418Z,9.02
